sensor_id;sensor_type;location;lat;lon;timestamp;P1;durP1;ratioP1;P2;durP2;ratioP2
5904;SDS011;2978;42.012;24.880;2023-02-12T00:00:30;4.40;;;3.90;;
5904;SDS011;2978;42.012;24.880;2023-02-12T00:02:55;6.20;;;3.90;;
5904;SDS011;2978;42.012;24.880;2023-02-12T00:05:20;3.30;;;3.00;;
5904;SDS011;2978;42.012;24.880;2023-02-12T00:07:46;4.27;;;2.50;;
5904;SDS011;2978;42.012;24.880;2023-02-12T00:10:11;4.83;;;2.70;;
5904;SDS011;2978;42.012;24.880;2023-02-12T00:12:37;5.50;;;2.70;;
5904;SDS011;2978;42.012;24.880;2023-02-12T00:15:03;3.53;;;2.60;;
5904;SDS011;2978;42.012;24.880;2023-02-12T00:17:28;5.70;;;3.60;;
5904;SDS011;2978;42.012;24.880;2023-02-12T00:19:54;3.07;;;2.73;;
5904;SDS011;2978;42.012;24.880;2023-02-12T00:22:19;2.67;;;2.43;;
5904;SDS011;2978;42.012;24.880;2023-02-12T00:24:44;4.57;;;3.47;;
5904;SDS011;2978;42.012;24.880;2023-02-12T00:27:10;4.40;;;3.40;;
5904;SDS011;2978;42.012;24.880;2023-02-12T00:29:36;5.30;;;3.03;;
5904;SDS011;2978;42.012;24.880;2023-02-12T00:32:01;3.60;;;3.10;;
5904;SDS011;2978;42.012;24.880;2023-02-12T00:34:27;3.27;;;2.70;;
5904;SDS011;2978;42.012;24.880;2023-02-12T00:36:52;3.60;;;3.00;;
5904;SDS011;2978;42.012;24.880;2023-02-12T00:39:18;3.30;;;2.47;;
5904;SDS011;2978;42.012;24.880;2023-02-12T00:41:43;4.83;;;2.67;;
5904;SDS011;2978;42.012;24.880;2023-02-12T00:44:09;4.03;;;3.23;;
5904;SDS011;2978;42.012;24.880;2023-02-12T00:46:34;11.40;;;3.27;;
5904;SDS011;2978;42.012;24.880;2023-02-12T00:48:59;4.43;;;2.90;;
5904;SDS011;2978;42.012;24.880;2023-02-12T00:51:25;4.00;;;3.13;;
5904;SDS011;2978;42.012;24.880;2023-02-12T00:53:50;12.50;;;2.93;;
5904;SDS011;2978;42.012;24.880;2023-02-12T00:56:16;3.80;;;3.00;;
5904;SDS011;2978;42.012;24.880;2023-02-12T00:58:41;5.03;;;2.80;;
5904;SDS011;2978;42.012;24.880;2023-02-12T01:01:06;4.10;;;3.03;;
5904;SDS011;2978;42.012;24.880;2023-02-12T01:03:32;2.53;;;2.20;;
5904;SDS011;2978;42.012;24.880;2023-02-12T01:05:57;3.50;;;2.70;;
5904;SDS011;2978;42.012;24.880;2023-02-12T01:08:23;8.53;;;2.83;;
5904;SDS011;2978;42.012;24.880;2023-02-12T01:10:59;3.37;;;2.70;;
5904;SDS011;2978;42.012;24.880;2023-02-12T01:13:26;4.50;;;3.03;;
5904;SDS011;2978;42.012;24.880;2023-02-12T01:16:03;3.40;;;2.50;;
5904;SDS011;2978;42.012;24.880;2023-02-12T01:18:32;3.83;;;3.43;;
5904;SDS011;2978;42.012;24.880;2023-02-12T01:20:58;4.50;;;3.20;;
5904;SDS011;2978;42.012;24.880;2023-02-12T01:23:24;23.77;;;3.47;;
5904;SDS011;2978;42.012;24.880;2023-02-12T01:25:49;8.53;;;3.70;;
5904;SDS011;2978;42.012;24.880;2023-02-12T01:28:15;5.67;;;3.40;;
5904;SDS011;2978;42.012;24.880;2023-02-12T01:30:40;11.30;;;2.97;;
5904;SDS011;2978;42.012;24.880;2023-02-12T01:33:05;4.70;;;2.87;;
5904;SDS011;2978;42.012;24.880;2023-02-12T01:35:31;6.10;;;3.37;;
5904;SDS011;2978;42.012;24.880;2023-02-12T01:37:56;3.63;;;2.90;;
5904;SDS011;2978;42.012;24.880;2023-02-12T01:40:22;5.93;;;3.23;;
5904;SDS011;2978;42.012;24.880;2023-02-12T01:42:48;5.27;;;2.93;;
5904;SDS011;2978;42.012;24.880;2023-02-12T01:47:42;6.70;;;3.30;;
5904;SDS011;2978;42.012;24.880;2023-02-12T01:50:10;5.97;;;3.47;;
5904;SDS011;2978;42.012;24.880;2023-02-12T01:52:40;9.50;;;5.20;;
5904;SDS011;2978;42.012;24.880;2023-02-12T01:55:09;3.87;;;2.80;;
5904;SDS011;2978;42.012;24.880;2023-02-12T01:57:37;2.93;;;2.63;;
5904;SDS011;2978;42.012;24.880;2023-02-12T02:00:08;3.07;;;2.67;;
5904;SDS011;2978;42.012;24.880;2023-02-12T02:02:44;4.37;;;3.03;;
5904;SDS011;2978;42.012;24.880;2023-02-12T02:05:13;3.97;;;3.00;;
5904;SDS011;2978;42.012;24.880;2023-02-12T02:07:47;6.13;;;3.60;;
5904;SDS011;2978;42.012;24.880;2023-02-12T02:10:12;3.93;;;2.80;;
5904;SDS011;2978;42.012;24.880;2023-02-12T02:12:38;5.10;;;2.67;;
5904;SDS011;2978;42.012;24.880;2023-02-12T02:15:22;4.80;;;2.70;;
5904;SDS011;2978;42.012;24.880;2023-02-12T02:17:51;3.27;;;2.20;;
5904;SDS011;2978;42.012;24.880;2023-02-12T02:20:58;3.10;;;2.63;;
5904;SDS011;2978;42.012;24.880;2023-02-12T02:32:02;3.60;;;2.67;;
5904;SDS011;2978;42.012;24.880;2023-02-12T02:34:36;9.10;;;2.83;;
5904;SDS011;2978;42.012;24.880;2023-02-12T02:37:17;5.53;;;3.30;;
5904;SDS011;2978;42.012;24.880;2023-02-12T02:42:32;7.63;;;2.47;;
5904;SDS011;2978;42.012;24.880;2023-02-12T02:45:23;5.67;;;3.40;;
5904;SDS011;2978;42.012;24.880;2023-02-12T02:48:01;6.00;;;3.47;;
5904;SDS011;2978;42.012;24.880;2023-02-12T02:53:42;6.13;;;3.43;;
5904;SDS011;2978;42.012;24.880;2023-02-12T02:56:13;4.93;;;3.33;;
5904;SDS011;2978;42.012;24.880;2023-02-12T02:58:58;9.57;;;5.10;;
5904;SDS011;2978;42.012;24.880;2023-02-12T03:01:29;7.60;;;4.47;;
5904;SDS011;2978;42.012;24.880;2023-02-12T03:04:35;6.27;;;3.10;;
5904;SDS011;2978;42.012;24.880;2023-02-12T03:07:07;4.10;;;3.00;;
5904;SDS011;2978;42.012;24.880;2023-02-12T03:09:41;3.77;;;3.03;;
5904;SDS011;2978;42.012;24.880;2023-02-12T03:12:21;3.20;;;2.63;;
5904;SDS011;2978;42.012;24.880;2023-02-12T03:14:56;3.40;;;2.63;;
5904;SDS011;2978;42.012;24.880;2023-02-12T03:17:38;3.13;;;2.33;;
5904;SDS011;2978;42.012;24.880;2023-02-12T03:20:21;2.90;;;2.33;;
5904;SDS011;2978;42.012;24.880;2023-02-12T03:22:55;5.13;;;2.30;;
5904;SDS011;2978;42.012;24.880;2023-02-12T03:25:27;4.30;;;2.93;;
5904;SDS011;2978;42.012;24.880;2023-02-12T03:28:09;3.23;;;2.93;;
5904;SDS011;2978;42.012;24.880;2023-02-12T03:30:41;4.93;;;2.63;;
5904;SDS011;2978;42.012;24.880;2023-02-12T03:33:19;3.80;;;2.40;;
5904;SDS011;2978;42.012;24.880;2023-02-12T03:36:22;2.83;;;2.30;;
5904;SDS011;2978;42.012;24.880;2023-02-12T03:38:58;2.77;;;2.43;;
5904;SDS011;2978;42.012;24.880;2023-02-12T03:41:39;3.07;;;2.77;;
5904;SDS011;2978;42.012;24.880;2023-02-12T03:50:18;3.10;;;2.80;;
5904;SDS011;2978;42.012;24.880;2023-02-12T03:52:49;3.30;;;2.90;;
5904;SDS011;2978;42.012;24.880;2023-02-12T03:55:15;3.63;;;2.60;;
5904;SDS011;2978;42.012;24.880;2023-02-12T03:57:42;2.43;;;2.10;;
5904;SDS011;2978;42.012;24.880;2023-02-12T04:00:16;2.60;;;2.27;;
5904;SDS011;2978;42.012;24.880;2023-02-12T04:02:44;3.30;;;2.57;;
5904;SDS011;2978;42.012;24.880;2023-02-12T04:05:25;3.50;;;2.90;;
5904;SDS011;2978;42.012;24.880;2023-02-12T04:07:52;3.60;;;2.90;;
5904;SDS011;2978;42.012;24.880;2023-02-12T04:10:43;4.50;;;2.43;;
5904;SDS011;2978;42.012;24.880;2023-02-12T04:18:44;2.97;;;2.43;;
5904;SDS011;2978;42.012;24.880;2023-02-12T04:24:21;4.90;;;3.27;;
5904;SDS011;2978;42.012;24.880;2023-02-12T04:29:41;2.90;;;2.60;;
5904;SDS011;2978;42.012;24.880;2023-02-12T04:32:20;2.43;;;2.23;;
5904;SDS011;2978;42.012;24.880;2023-02-12T04:34:51;2.93;;;2.40;;
5904;SDS011;2978;42.012;24.880;2023-02-12T04:37:40;3.43;;;2.67;;
5904;SDS011;2978;42.012;24.880;2023-02-12T04:40:12;2.87;;;2.30;;
5904;SDS011;2978;42.012;24.880;2023-02-12T04:42:43;8.73;;;2.47;;
5904;SDS011;2978;42.012;24.880;2023-02-12T04:45:11;3.90;;;2.70;;
5904;SDS011;2978;42.012;24.880;2023-02-12T04:47:39;3.70;;;2.40;;
5904;SDS011;2978;42.012;24.880;2023-02-12T04:50:04;3.10;;;2.50;;
5904;SDS011;2978;42.012;24.880;2023-02-12T04:52:30;3.77;;;2.50;;
5904;SDS011;2978;42.012;24.880;2023-02-12T04:54:55;4.93;;;2.50;;
5904;SDS011;2978;42.012;24.880;2023-02-12T04:57:21;7.97;;;5.80;;
5904;SDS011;2978;42.012;24.880;2023-02-12T04:59:46;3.70;;;2.90;;
5904;SDS011;2978;42.012;24.880;2023-02-12T05:02:12;3.77;;;2.90;;
5904;SDS011;2978;42.012;24.880;2023-02-12T05:04:37;3.00;;;2.40;;
5904;SDS011;2978;42.012;24.880;2023-02-12T05:07:02;3.30;;;2.40;;
5904;SDS011;2978;42.012;24.880;2023-02-12T05:09:28;3.00;;;2.30;;
5904;SDS011;2978;42.012;24.880;2023-02-12T05:11:53;2.90;;;2.27;;
5904;SDS011;2978;42.012;24.880;2023-02-12T05:14:19;3.47;;;2.40;;
5904;SDS011;2978;42.012;24.880;2023-02-12T05:16:44;5.10;;;2.50;;
5904;SDS011;2978;42.012;24.880;2023-02-12T05:19:10;3.60;;;2.43;;
5904;SDS011;2978;42.012;24.880;2023-02-12T05:21:35;2.43;;;2.23;;
5904;SDS011;2978;42.012;24.880;2023-02-12T05:24:02;2.70;;;2.43;;
5904;SDS011;2978;42.012;24.880;2023-02-12T05:26:27;3.40;;;2.57;;
5904;SDS011;2978;42.012;24.880;2023-02-12T05:28:53;3.93;;;2.53;;
5904;SDS011;2978;42.012;24.880;2023-02-12T05:31:18;4.63;;;2.90;;
5904;SDS011;2978;42.012;24.880;2023-02-12T05:33:45;5.80;;;2.77;;
5904;SDS011;2978;42.012;24.880;2023-02-12T05:36:13;5.80;;;3.63;;
5904;SDS011;2978;42.012;24.880;2023-02-12T05:38:40;3.37;;;3.07;;
5904;SDS011;2978;42.012;24.880;2023-02-12T05:41:06;3.50;;;2.53;;
5904;SDS011;2978;42.012;24.880;2023-02-12T05:43:33;5.10;;;3.10;;
5904;SDS011;2978;42.012;24.880;2023-02-12T05:45:59;3.33;;;2.83;;
5904;SDS011;2978;42.012;24.880;2023-02-12T05:48:29;4.30;;;3.57;;
5904;SDS011;2978;42.012;24.880;2023-02-12T05:51:00;3.13;;;2.73;;
5904;SDS011;2978;42.012;24.880;2023-02-12T05:53:31;4.33;;;2.80;;
5904;SDS011;2978;42.012;24.880;2023-02-12T05:58:35;3.30;;;3.00;;
5904;SDS011;2978;42.012;24.880;2023-02-12T06:01:01;4.33;;;3.13;;
5904;SDS011;2978;42.012;24.880;2023-02-12T06:03:27;5.13;;;3.27;;
5904;SDS011;2978;42.012;24.880;2023-02-12T06:05:52;6.13;;;3.87;;
5904;SDS011;2978;42.012;24.880;2023-02-12T06:08:18;5.20;;;3.67;;
5904;SDS011;2978;42.012;24.880;2023-02-12T06:10:43;5.30;;;3.53;;
5904;SDS011;2978;42.012;24.880;2023-02-12T06:13:09;6.63;;;4.30;;
5904;SDS011;2978;42.012;24.880;2023-02-12T06:15:37;6.37;;;3.70;;
5904;SDS011;2978;42.012;24.880;2023-02-12T06:18:03;4.60;;;3.60;;
5904;SDS011;2978;42.012;24.880;2023-02-12T06:20:28;5.30;;;4.40;;
5904;SDS011;2978;42.012;24.880;2023-02-12T06:22:53;6.63;;;4.23;;
5904;SDS011;2978;42.012;24.880;2023-02-12T06:25:19;9.60;;;5.07;;
5904;SDS011;2978;42.012;24.880;2023-02-12T06:27:44;5.23;;;3.97;;
5904;SDS011;2978;42.012;24.880;2023-02-12T06:30:10;9.90;;;4.53;;
5904;SDS011;2978;42.012;24.880;2023-02-12T06:32:36;7.03;;;4.33;;
5904;SDS011;2978;42.012;24.880;2023-02-12T06:35:01;7.00;;;4.57;;
5904;SDS011;2978;42.012;24.880;2023-02-12T06:37:27;10.70;;;4.57;;
5904;SDS011;2978;42.012;24.880;2023-02-12T06:39:52;15.30;;;7.13;;
5904;SDS011;2978;42.012;24.880;2023-02-12T06:42:17;9.13;;;6.17;;
5904;SDS011;2978;42.012;24.880;2023-02-12T06:44:43;5.87;;;4.67;;
5904;SDS011;2978;42.012;24.880;2023-02-12T06:47:10;13.13;;;6.90;;
5904;SDS011;2978;42.012;24.880;2023-02-12T06:49:36;6.80;;;5.33;;
5904;SDS011;2978;42.012;24.880;2023-02-12T06:52:01;8.10;;;4.50;;
5904;SDS011;2978;42.012;24.880;2023-02-12T06:54:26;7.27;;;5.20;;
5904;SDS011;2978;42.012;24.880;2023-02-12T06:56:52;18.30;;;9.10;;
5904;SDS011;2978;42.012;24.880;2023-02-12T06:59:17;17.63;;;6.70;;
5904;SDS011;2978;42.012;24.880;2023-02-12T07:01:43;7.43;;;5.67;;
5904;SDS011;2978;42.012;24.880;2023-02-12T07:04:08;13.10;;;7.53;;
5904;SDS011;2978;42.012;24.880;2023-02-12T07:06:35;12.83;;;6.83;;
5904;SDS011;2978;42.012;24.880;2023-02-12T07:09:01;12.17;;;6.53;;
5904;SDS011;2978;42.012;24.880;2023-02-12T07:11:29;16.63;;;6.43;;
5904;SDS011;2978;42.012;24.880;2023-02-12T07:13:56;18.40;;;6.80;;
5904;SDS011;2978;42.012;24.880;2023-02-12T07:16:21;16.47;;;10.30;;
5904;SDS011;2978;42.012;24.880;2023-02-12T07:18:47;17.03;;;7.67;;
5904;SDS011;2978;42.012;24.880;2023-02-12T07:21:13;11.47;;;7.00;;
5904;SDS011;2978;42.012;24.880;2023-02-12T07:23:40;12.73;;;6.97;;
5904;SDS011;2978;42.012;24.880;2023-02-12T07:26:07;15.13;;;7.10;;
5904;SDS011;2978;42.012;24.880;2023-02-12T07:28:35;11.67;;;6.67;;
5904;SDS011;2978;42.012;24.880;2023-02-12T07:33:34;14.57;;;6.93;;
5904;SDS011;2978;42.012;24.880;2023-02-12T07:36:00;14.20;;;7.33;;
5904;SDS011;2978;42.012;24.880;2023-02-12T07:38:27;11.57;;;7.40;;
5904;SDS011;2978;42.012;24.880;2023-02-12T07:40:53;22.73;;;8.20;;
5904;SDS011;2978;42.012;24.880;2023-02-12T07:43:21;15.97;;;7.87;;
5904;SDS011;2978;42.012;24.880;2023-02-12T07:45:46;16.93;;;7.27;;
5904;SDS011;2978;42.012;24.880;2023-02-12T07:48:12;15.90;;;8.10;;
5904;SDS011;2978;42.012;24.880;2023-02-12T07:50:37;10.17;;;6.37;;
5904;SDS011;2978;42.012;24.880;2023-02-12T07:53:03;24.10;;;6.67;;
5904;SDS011;2978;42.012;24.880;2023-02-12T07:55:28;17.80;;;6.60;;
5904;SDS011;2978;42.012;24.880;2023-02-12T07:57:53;18.40;;;6.40;;
5904;SDS011;2978;42.012;24.880;2023-02-12T08:00:19;11.10;;;6.80;;
5904;SDS011;2978;42.012;24.880;2023-02-12T08:02:49;12.33;;;6.30;;
5904;SDS011;2978;42.012;24.880;2023-02-12T08:05:16;11.13;;;6.70;;
5904;SDS011;2978;42.012;24.880;2023-02-12T08:07:41;10.97;;;7.60;;
5904;SDS011;2978;42.012;24.880;2023-02-12T08:10:07;11.90;;;6.63;;
5904;SDS011;2978;42.012;24.880;2023-02-12T08:12:32;10.43;;;6.30;;
5904;SDS011;2978;42.012;24.880;2023-02-12T08:14:58;10.73;;;6.83;;
5904;SDS011;2978;42.012;24.880;2023-02-12T08:17:23;10.47;;;6.43;;
5904;SDS011;2978;42.012;24.880;2023-02-12T08:19:48;10.20;;;7.00;;
5904;SDS011;2978;42.012;24.880;2023-02-12T08:22:14;12.20;;;7.57;;
5904;SDS011;2978;42.012;24.880;2023-02-12T08:24:39;10.40;;;6.50;;
5904;SDS011;2978;42.012;24.880;2023-02-12T08:27:06;10.63;;;6.90;;
5904;SDS011;2978;42.012;24.880;2023-02-12T08:29:31;13.87;;;7.80;;
5904;SDS011;2978;42.012;24.880;2023-02-12T08:31:58;17.43;;;6.83;;
5904;SDS011;2978;42.012;24.880;2023-02-12T08:34:26;19.73;;;7.90;;
5904;SDS011;2978;42.012;24.880;2023-02-12T08:36:54;9.27;;;6.63;;
5904;SDS011;2978;42.012;24.880;2023-02-12T08:39:20;8.33;;;6.93;;
5904;SDS011;2978;42.012;24.880;2023-02-12T08:41:46;19.30;;;6.93;;
5904;SDS011;2978;42.012;24.880;2023-02-12T08:44:13;11.90;;;7.00;;
5904;SDS011;2978;42.012;24.880;2023-02-12T08:46:41;11.53;;;7.10;;
5904;SDS011;2978;42.012;24.880;2023-02-12T08:49:19;8.87;;;6.53;;
5904;SDS011;2978;42.012;24.880;2023-02-12T08:51:47;14.33;;;6.60;;
5904;SDS011;2978;42.012;24.880;2023-02-12T08:54:16;11.70;;;7.40;;
5904;SDS011;2978;42.012;24.880;2023-02-12T08:56:44;15.83;;;7.27;;
5904;SDS011;2978;42.012;24.880;2023-02-12T08:59:09;12.77;;;7.70;;
5904;SDS011;2978;42.012;24.880;2023-02-12T09:01:36;11.50;;;7.33;;
5904;SDS011;2978;42.012;24.880;2023-02-12T09:04:03;10.13;;;7.30;;
5904;SDS011;2978;42.012;24.880;2023-02-12T09:06:30;15.57;;;9.60;;
5904;SDS011;2978;42.012;24.880;2023-02-12T09:08:58;12.00;;;9.00;;
5904;SDS011;2978;42.012;24.880;2023-02-12T09:11:25;24.43;;;6.57;;
5904;SDS011;2978;42.012;24.880;2023-02-12T09:13:55;12.17;;;7.57;;
5904;SDS011;2978;42.012;24.880;2023-02-12T09:16:23;13.27;;;7.13;;
5904;SDS011;2978;42.012;24.880;2023-02-12T09:18:48;18.33;;;8.30;;
5904;SDS011;2978;42.012;24.880;2023-02-12T09:21:14;10.67;;;7.30;;
5904;SDS011;2978;42.012;24.880;2023-02-12T09:23:41;11.80;;;7.20;;
5904;SDS011;2978;42.012;24.880;2023-02-12T09:26:08;10.77;;;6.13;;
5904;SDS011;2978;42.012;24.880;2023-02-12T09:28:35;9.60;;;7.10;;
5904;SDS011;2978;42.012;24.880;2023-02-12T09:31:08;12.30;;;6.80;;
5904;SDS011;2978;42.012;24.880;2023-02-12T09:33:35;12.57;;;7.07;;
5904;SDS011;2978;42.012;24.880;2023-02-12T09:36:03;22.03;;;7.37;;
5904;SDS011;2978;42.012;24.880;2023-02-12T09:38:31;17.30;;;7.30;;
5904;SDS011;2978;42.012;24.880;2023-02-12T09:41:20;11.80;;;6.93;;
5904;SDS011;2978;42.012;24.880;2023-02-12T09:46:58;10.97;;;6.70;;
5904;SDS011;2978;42.012;24.880;2023-02-12T09:49:48;13.37;;;6.70;;
5904;SDS011;2978;42.012;24.880;2023-02-12T09:52:25;10.57;;;5.47;;
5904;SDS011;2978;42.012;24.880;2023-02-12T09:54:52;9.80;;;6.87;;
5904;SDS011;2978;42.012;24.880;2023-02-12T09:57:29;15.00;;;7.50;;
5904;SDS011;2978;42.012;24.880;2023-02-12T10:00:00;11.40;;;7.73;;
5904;SDS011;2978;42.012;24.880;2023-02-12T10:02:35;11.80;;;7.60;;
5904;SDS011;2978;42.012;24.880;2023-02-12T10:05:02;15.07;;;6.80;;
5904;SDS011;2978;42.012;24.880;2023-02-12T10:12:37;7.57;;;5.40;;
5904;SDS011;2978;42.012;24.880;2023-02-12T10:23:21;8.20;;;5.93;;
5904;SDS011;2978;42.012;24.880;2023-02-12T10:25:53;7.90;;;5.60;;
5904;SDS011;2978;42.012;24.880;2023-02-12T10:28:25;9.13;;;6.17;;
5904;SDS011;2978;42.012;24.880;2023-02-12T10:30:58;11.40;;;5.80;;
5904;SDS011;2978;42.012;24.880;2023-02-12T10:33:28;11.13;;;5.70;;
5904;SDS011;2978;42.012;24.880;2023-02-12T10:36:08;10.90;;;6.60;;
5904;SDS011;2978;42.012;24.880;2023-02-12T10:38:37;8.60;;;5.77;;
5904;SDS011;2978;42.012;24.880;2023-02-12T10:41:08;9.90;;;6.70;;
5904;SDS011;2978;42.012;24.880;2023-02-12T10:43:36;8.60;;;5.43;;
5904;SDS011;2978;42.012;24.880;2023-02-12T10:46:02;8.53;;;5.93;;
5904;SDS011;2978;42.012;24.880;2023-02-12T10:48:34;13.40;;;6.67;;
5904;SDS011;2978;42.012;24.880;2023-02-12T10:53:36;7.97;;;5.50;;
5904;SDS011;2978;42.012;24.880;2023-02-12T11:07:02;10.83;;;6.50;;
5904;SDS011;2978;42.012;24.880;2023-02-12T11:09:34;8.17;;;5.93;;
5904;SDS011;2978;42.012;24.880;2023-02-12T11:12:23;7.57;;;6.20;;
5904;SDS011;2978;42.012;24.880;2023-02-12T11:15:03;10.97;;;5.50;;
5904;SDS011;2978;42.012;24.880;2023-02-12T11:17:38;8.93;;;6.10;;
5904;SDS011;2978;42.012;24.880;2023-02-12T11:25:23;12.20;;;8.47;;
5904;SDS011;2978;42.012;24.880;2023-02-12T11:30:28;9.70;;;6.37;;
5904;SDS011;2978;42.012;24.880;2023-02-12T11:32:54;10.00;;;6.77;;
5904;SDS011;2978;42.012;24.880;2023-02-12T11:35:20;13.23;;;6.50;;
5904;SDS011;2978;42.012;24.880;2023-02-12T11:37:56;15.47;;;7.00;;
5904;SDS011;2978;42.012;24.880;2023-02-12T11:42:49;12.00;;;7.87;;
5904;SDS011;2978;42.012;24.880;2023-02-12T11:45:21;10.97;;;7.27;;
5904;SDS011;2978;42.012;24.880;2023-02-12T11:48:18;13.40;;;8.47;;
5904;SDS011;2978;42.012;24.880;2023-02-12T11:50:48;9.83;;;6.70;;
5904;SDS011;2978;42.012;24.880;2023-02-12T11:56:11;10.63;;;7.20;;
5904;SDS011;2978;42.012;24.880;2023-02-12T11:58:38;12.63;;;7.83;;
5904;SDS011;2978;42.012;24.880;2023-02-12T12:01:08;12.83;;;7.70;;
5904;SDS011;2978;42.012;24.880;2023-02-12T12:17:44;12.77;;;9.17;;
5904;SDS011;2978;42.012;24.880;2023-02-12T12:20:40;13.80;;;8.90;;
5904;SDS011;2978;42.012;24.880;2023-02-12T12:26:10;13.20;;;8.93;;
5904;SDS011;2978;42.012;24.880;2023-02-12T12:34:26;16.70;;;11.00;;
5904;SDS011;2978;42.012;24.880;2023-02-12T12:39:27;15.83;;;9.90;;
5904;SDS011;2978;42.012;24.880;2023-02-12T12:52:56;15.10;;;9.47;;
5904;SDS011;2978;42.012;24.880;2023-02-12T12:58:45;9.00;;;7.27;;
5904;SDS011;2978;42.012;24.880;2023-02-12T13:09:48;11.80;;;8.13;;
5904;SDS011;2978;42.012;24.880;2023-02-12T13:15:13;12.33;;;8.33;;
5904;SDS011;2978;42.012;24.880;2023-02-12T13:17:53;14.53;;;9.27;;
5904;SDS011;2978;42.012;24.880;2023-02-12T13:20:32;11.60;;;7.53;;
5904;SDS011;2978;42.012;24.880;2023-02-12T13:26:12;14.63;;;8.43;;
5904;SDS011;2978;42.012;24.880;2023-02-12T13:28:45;12.63;;;8.87;;
5904;SDS011;2978;42.012;24.880;2023-02-12T13:31:19;13.80;;;8.77;;
5904;SDS011;2978;42.012;24.880;2023-02-12T13:34:05;16.90;;;9.40;;
5904;SDS011;2978;42.012;24.880;2023-02-12T13:36:36;14.60;;;8.57;;
5904;SDS011;2978;42.012;24.880;2023-02-12T13:41:47;10.90;;;7.40;;
5904;SDS011;2978;42.012;24.880;2023-02-12T13:44:25;12.00;;;7.90;;
5904;SDS011;2978;42.012;24.880;2023-02-12T13:55:50;10.23;;;6.40;;
5904;SDS011;2978;42.012;24.880;2023-02-12T14:01:11;11.63;;;7.80;;
5904;SDS011;2978;42.012;24.880;2023-02-12T14:04:14;35.77;;;25.77;;
5904;SDS011;2978;42.012;24.880;2023-02-12T14:07:02;19.53;;;14.10;;
5904;SDS011;2978;42.012;24.880;2023-02-12T14:14:50;13.10;;;8.73;;
5904;SDS011;2978;42.012;24.880;2023-02-12T14:19:55;11.67;;;7.97;;
5904;SDS011;2978;42.012;24.880;2023-02-12T14:24:52;19.07;;;13.70;;
5904;SDS011;2978;42.012;24.880;2023-02-12T14:27:33;12.93;;;8.93;;
5904;SDS011;2978;42.012;24.880;2023-02-12T14:37:55;13.43;;;8.60;;
5904;SDS011;2978;42.012;24.880;2023-02-12T14:43:21;13.90;;;11.67;;
5904;SDS011;2978;42.012;24.880;2023-02-12T14:51:26;14.27;;;10.00;;
5904;SDS011;2978;42.012;24.880;2023-02-12T14:54:00;18.93;;;10.90;;
5904;SDS011;2978;42.012;24.880;2023-02-12T14:56:28;16.53;;;10.10;;
5904;SDS011;2978;42.012;24.880;2023-02-12T14:59:01;14.60;;;9.97;;
5904;SDS011;2978;42.012;24.880;2023-02-12T15:01:30;22.60;;;14.40;;
5904;SDS011;2978;42.012;24.880;2023-02-12T15:03:58;16.07;;;11.33;;
5904;SDS011;2978;42.012;24.880;2023-02-12T15:06:49;35.17;;;23.00;;
5904;SDS011;2978;42.012;24.880;2023-02-12T15:09:20;16.63;;;11.77;;
5904;SDS011;2978;42.012;24.880;2023-02-12T15:12:10;14.50;;;10.40;;
5904;SDS011;2978;42.012;24.880;2023-02-12T15:14:43;19.80;;;10.83;;
5904;SDS011;2978;42.012;24.880;2023-02-12T15:17:16;16.63;;;10.27;;
5904;SDS011;2978;42.012;24.880;2023-02-12T15:19:51;17.00;;;10.60;;
5904;SDS011;2978;42.012;24.880;2023-02-12T15:22:30;14.30;;;11.10;;
5904;SDS011;2978;42.012;24.880;2023-02-12T15:27:55;22.23;;;13.00;;
5904;SDS011;2978;42.012;24.880;2023-02-12T15:30:31;18.80;;;13.27;;
5904;SDS011;2978;42.012;24.880;2023-02-12T15:33:01;18.33;;;12.77;;
5904;SDS011;2978;42.012;24.880;2023-02-12T15:35:31;17.37;;;12.73;;
5904;SDS011;2978;42.012;24.880;2023-02-12T15:37:58;22.33;;;13.07;;
5904;SDS011;2978;42.012;24.880;2023-02-12T15:40:26;23.37;;;13.80;;
5904;SDS011;2978;42.012;24.880;2023-02-12T15:43:03;22.80;;;15.40;;
5904;SDS011;2978;42.012;24.880;2023-02-12T15:45:32;29.37;;;19.70;;
5904;SDS011;2978;42.012;24.880;2023-02-12T15:50:33;25.13;;;16.40;;
5904;SDS011;2978;42.012;24.880;2023-02-12T15:53:09;31.77;;;16.97;;
5904;SDS011;2978;42.012;24.880;2023-02-12T15:55:36;20.67;;;13.90;;
5904;SDS011;2978;42.012;24.880;2023-02-12T15:58:13;28.57;;;15.00;;
5904;SDS011;2978;42.012;24.880;2023-02-12T16:00:45;23.43;;;14.47;;
5904;SDS011;2978;42.012;24.880;2023-02-12T16:03:21;25.20;;;16.40;;
5904;SDS011;2978;42.012;24.880;2023-02-12T16:05:48;77.40;;;47.63;;
5904;SDS011;2978;42.012;24.880;2023-02-12T16:08:16;34.37;;;23.13;;
5904;SDS011;2978;42.012;24.880;2023-02-12T16:10:44;29.77;;;20.53;;
5904;SDS011;2978;42.012;24.880;2023-02-12T16:13:32;24.60;;;17.20;;
5904;SDS011;2978;42.012;24.880;2023-02-12T16:18:37;33.90;;;22.00;;
5904;SDS011;2978;42.012;24.880;2023-02-12T16:21:10;31.27;;;20.60;;
5904;SDS011;2978;42.012;24.880;2023-02-12T16:23:42;26.83;;;17.50;;
5904;SDS011;2978;42.012;24.880;2023-02-12T16:26:18;37.17;;;23.83;;
5904;SDS011;2978;42.012;24.880;2023-02-12T16:28:47;33.37;;;23.53;;
5904;SDS011;2978;42.012;24.880;2023-02-12T16:31:15;28.53;;;19.03;;
5904;SDS011;2978;42.012;24.880;2023-02-12T16:33:46;33.93;;;20.80;;
5904;SDS011;2978;42.012;24.880;2023-02-12T16:43:41;60.90;;;35.73;;
5904;SDS011;2978;42.012;24.880;2023-02-12T16:46:06;59.30;;;36.83;;
5904;SDS011;2978;42.012;24.880;2023-02-12T16:48:39;61.37;;;35.20;;
5904;SDS011;2978;42.012;24.880;2023-02-12T16:51:18;51.53;;;29.23;;
5904;SDS011;2978;42.012;24.880;2023-02-12T16:53:53;48.97;;;31.17;;
5904;SDS011;2978;42.012;24.880;2023-02-12T16:56:21;44.90;;;26.97;;
5904;SDS011;2978;42.012;24.880;2023-02-12T16:58:52;49.87;;;28.73;;
5904;SDS011;2978;42.012;24.880;2023-02-12T17:01:21;53.80;;;28.90;;
5904;SDS011;2978;42.012;24.880;2023-02-12T17:03:53;52.07;;;29.73;;
5904;SDS011;2978;42.012;24.880;2023-02-12T17:06:25;49.50;;;31.03;;
5904;SDS011;2978;42.012;24.880;2023-02-12T17:08:52;65.13;;;39.60;;
5904;SDS011;2978;42.012;24.880;2023-02-12T17:11:17;51.33;;;29.10;;
5904;SDS011;2978;42.012;24.880;2023-02-12T17:13:44;41.73;;;29.03;;
5904;SDS011;2978;42.012;24.880;2023-02-12T17:16:10;45.00;;;26.37;;
5904;SDS011;2978;42.012;24.880;2023-02-12T17:18:35;39.13;;;25.70;;
5904;SDS011;2978;42.012;24.880;2023-02-12T17:21:03;49.27;;;31.80;;
5904;SDS011;2978;42.012;24.880;2023-02-12T17:23:31;68.20;;;39.23;;
5904;SDS011;2978;42.012;24.880;2023-02-12T17:25:57;74.43;;;44.17;;
5904;SDS011;2978;42.012;24.880;2023-02-12T17:28:23;71.27;;;42.80;;
5904;SDS011;2978;42.012;24.880;2023-02-12T17:30:49;86.13;;;49.17;;
5904;SDS011;2978;42.012;24.880;2023-02-12T17:33:15;73.30;;;40.90;;
5904;SDS011;2978;42.012;24.880;2023-02-12T17:35:41;63.67;;;39.03;;
5904;SDS011;2978;42.012;24.880;2023-02-12T17:38:06;67.93;;;36.43;;
5904;SDS011;2978;42.012;24.880;2023-02-12T17:40:36;75.27;;;43.40;;
5904;SDS011;2978;42.012;24.880;2023-02-12T17:43:02;71.40;;;41.70;;
5904;SDS011;2978;42.012;24.880;2023-02-12T17:45:29;72.43;;;41.57;;
5904;SDS011;2978;42.012;24.880;2023-02-12T17:47:54;74.77;;;43.80;;
5904;SDS011;2978;42.012;24.880;2023-02-12T17:50:20;81.50;;;45.63;;
5904;SDS011;2978;42.012;24.880;2023-02-12T17:52:45;63.80;;;39.80;;
5904;SDS011;2978;42.012;24.880;2023-02-12T17:55:10;82.20;;;44.87;;
5904;SDS011;2978;42.012;24.880;2023-02-12T17:57:37;150.27;;;80.23;;
5904;SDS011;2978;42.012;24.880;2023-02-12T18:00:04;92.53;;;49.97;;
5904;SDS011;2978;42.012;24.880;2023-02-12T18:02:31;41.63;;;26.70;;
5904;SDS011;2978;42.012;24.880;2023-02-12T18:04:56;44.17;;;25.30;;
5904;SDS011;2978;42.012;24.880;2023-02-12T18:07:22;29.60;;;19.20;;
5904;SDS011;2978;42.012;24.880;2023-02-12T18:09:47;30.37;;;19.47;;
5904;SDS011;2978;42.012;24.880;2023-02-12T18:12:13;31.80;;;20.23;;
5904;SDS011;2978;42.012;24.880;2023-02-12T18:14:38;30.80;;;21.67;;
5904;SDS011;2978;42.012;24.880;2023-02-12T18:17:03;34.80;;;22.77;;
5904;SDS011;2978;42.012;24.880;2023-02-12T18:19:29;35.37;;;21.87;;